sensor_id;sensor_type;location;lat;lon;timestamp;pressure;altitude;pressure_sealevel;temperature
74533;BMP180;63012;51.096;-115.366;2022-11-15T00:01:12;87979.80;;;-3.50
74533;BMP180;63012;51.096;-115.366;2022-11-15T00:03:41;87979.20;;;-3.50
74533;BMP180;63012;51.096;-115.366;2022-11-15T00:06:08;87978.60;;;-3.50
74533;BMP180;63012;51.096;-115.366;2022-11-15T00:08:35;87987.60;;;-3.54
74533;BMP180;63012;51.096;-115.366;2022-11-15T00:11:08;87985.40;;;-3.58
74533;BMP180;63012;51.096;-115.366;2022-11-15T00:13:35;87989.00;;;-3.60
74533;BMP180;63012;51.096;-115.366;2022-11-15T00:16:05;87991.20;;;-3.64
74533;BMP180;63012;51.096;-115.366;2022-11-15T00:18:32;88000.20;;;-3.70
74533;BMP180;63012;51.096;-115.366;2022-11-15T00:21:10;88005.20;;;-3.70
74533;BMP180;63012;51.096;-115.366;2022-11-15T00:23:37;88007.20;;;-3.70
74533;BMP180;63012;51.096;-115.366;2022-11-15T00:26:05;88000.80;;;-3.66
74533;BMP180;63012;51.096;-115.366;2022-11-15T00:28:32;88005.20;;;-3.70
74533;BMP180;63012;51.096;-115.366;2022-11-15T00:31:13;88005.80;;;-3.70
74533;BMP180;63012;51.096;-115.366;2022-11-15T00:33:43;88004.00;;;-3.78
74533;BMP180;63012;51.096;-115.366;2022-11-15T00:36:10;88009.40;;;-3.80
74533;BMP180;63012;51.096;-115.366;2022-11-15T00:38:39;88016.60;;;-3.76
74533;BMP180;63012;51.096;-115.366;2022-11-15T00:41:08;88016.20;;;-3.80
74533;BMP180;63012;51.096;-115.366;2022-11-15T00:43:35;88014.20;;;-3.80
74533;BMP180;63012;51.096;-115.366;2022-11-15T00:46:02;88017.60;;;-3.80
74533;BMP180;63012;51.096;-115.366;2022-11-15T00:48:30;88019.40;;;-3.80
74533;BMP180;63012;51.096;-115.366;2022-11-15T00:50:58;88022.60;;;-3.90
74533;BMP180;63012;51.096;-115.366;2022-11-15T00:53:25;88016.80;;;-3.90
74533;BMP180;63012;51.096;-115.366;2022-11-15T00:55:52;88033.80;;;-3.90
74533;BMP180;63012;51.096;-115.366;2022-11-15T00:58:19;88021.80;;;-3.90
74533;BMP180;63012;51.096;-115.366;2022-11-15T01:00:46;88012.20;;;-3.90
74533;BMP180;63012;51.096;-115.366;2022-11-15T01:03:13;88014.60;;;-3.86
74533;BMP180;63012;51.096;-115.366;2022-11-15T01:05:40;88017.60;;;-3.80
74533;BMP180;63012;51.096;-115.366;2022-11-15T01:08:14;88020.60;;;-3.80
74533;BMP180;63012;51.096;-115.366;2022-11-15T01:10:41;88016.40;;;-3.80
74533;BMP180;63012;51.096;-115.366;2022-11-15T01:13:08;88016.00;;;-3.80
74533;BMP180;63012;51.096;-115.366;2022-11-15T01:15:40;88013.20;;;-3.80
74533;BMP180;63012;51.096;-115.366;2022-11-15T01:18:08;88025.20;;;-3.82
74533;BMP180;63012;51.096;-115.366;2022-11-15T01:20:42;88029.00;;;-3.80
74533;BMP180;63012;51.096;-115.366;2022-11-15T01:23:10;88027.40;;;-3.82
74533;BMP180;63012;51.096;-115.366;2022-11-15T01:25:37;88033.00;;;-3.90
74533;BMP180;63012;51.096;-115.366;2022-11-15T01:28:04;88033.40;;;-3.90
74533;BMP180;63012;51.096;-115.366;2022-11-15T01:30:31;88032.60;;;-4.00
74533;BMP180;63012;51.096;-115.366;2022-11-15T01:32:58;88025.20;;;-4.08
74533;BMP180;63012;51.096;-115.366;2022-11-15T01:35:25;88038.60;;;-4.10
74533;BMP180;63012;51.096;-115.366;2022-11-15T01:37:51;88040.60;;;-4.20
74533;BMP180;63012;51.096;-115.366;2022-11-15T01:40:18;88032.60;;;-4.30
74533;BMP180;63012;51.096;-115.366;2022-11-15T01:42:45;88036.60;;;-4.30
74533;BMP180;63012;51.096;-115.366;2022-11-15T01:45:16;88042.20;;;-4.36
74533;BMP180;63012;51.096;-115.366;2022-11-15T01:47:54;88046.40;;;-4.40
74533;BMP180;63012;51.096;-115.366;2022-11-15T01:50:30;88053.80;;;-4.40
74533;BMP180;63012;51.096;-115.366;2022-11-15T01:52:57;88043.60;;;-4.40
74533;BMP180;63012;51.096;-115.366;2022-11-15T01:55:28;88052.60;;;-4.40
74533;BMP180;63012;51.096;-115.366;2022-11-15T01:58:02;88042.20;;;-4.42
74533;BMP180;63012;51.096;-115.366;2022-11-15T02:00:30;88050.20;;;-4.50
74533;BMP180;63012;51.096;-115.366;2022-11-15T02:02:58;88055.40;;;-4.54
74533;BMP180;63012;51.096;-115.366;2022-11-15T02:05:26;88061.00;;;-4.60
74533;BMP180;63012;51.096;-115.366;2022-11-15T02:07:54;88047.80;;;-4.62
74533;BMP180;63012;51.096;-115.366;2022-11-15T02:10:24;88056.00;;;-4.70
74533;BMP180;63012;51.096;-115.366;2022-11-15T02:12:52;88052.60;;;-4.70
74533;BMP180;63012;51.096;-115.366;2022-11-15T02:15:20;88058.40;;;-4.70
74533;BMP180;63012;51.096;-115.366;2022-11-15T02:18:32;88053.60;;;-4.80
74533;BMP180;63012;51.096;-115.366;2022-11-15T02:21:36;88050.80;;;-4.80
74533;BMP180;63012;51.096;-115.366;2022-11-15T02:24:49;88057.60;;;-4.90
74533;BMP180;63012;51.096;-115.366;2022-11-15T02:28:06;88048.80;;;-5.00
74533;BMP180;63012;51.096;-115.366;2022-11-15T02:31:35;88066.40;;;-5.02
74533;BMP180;63012;51.096;-115.366;2022-11-15T02:34:43;88057.20;;;-5.10
74533;BMP180;63012;51.096;-115.366;2022-11-15T02:40:55;88061.00;;;-5.10
74533;BMP180;63012;51.096;-115.366;2022-11-15T02:46:59;88062.20;;;-5.10
74533;BMP180;63012;51.096;-115.366;2022-11-15T02:49:57;88056.40;;;-5.10
74533;BMP180;63012;51.096;-115.366;2022-11-15T02:52:25;88063.40;;;-5.10
74533;BMP180;63012;51.096;-115.366;2022-11-15T02:54:59;88068.40;;;-5.10
74533;BMP180;63012;51.096;-115.366;2022-11-15T03:01:00;88077.00;;;-5.10
74533;BMP180;63012;51.096;-115.366;2022-11-15T03:06:55;88076.60;;;-5.16
74533;BMP180;63012;51.096;-115.366;2022-11-15T03:12:35;88079.40;;;-5.20
74533;BMP180;63012;51.096;-115.366;2022-11-15T03:15:20;88075.20;;;-5.30
74533;BMP180;63012;51.096;-115.366;2022-11-15T03:17:59;88080.20;;;-5.30
74533;BMP180;63012;51.096;-115.366;2022-11-15T03:20:28;88078.80;;;-5.30
74533;BMP180;63012;51.096;-115.366;2022-11-15T03:23:03;88083.80;;;-5.30
74533;BMP180;63012;51.096;-115.366;2022-11-15T03:25:33;88082.00;;;-5.30
74533;BMP180;63012;51.096;-115.366;2022-11-15T03:28:05;88085.40;;;-5.20
74533;BMP180;63012;51.096;-115.366;2022-11-15T03:30:37;88085.60;;;-5.20
74533;BMP180;63012;51.096;-115.366;2022-11-15T03:33:06;88083.20;;;-5.20
74533;BMP180;63012;51.096;-115.366;2022-11-15T03:35:42;88084.20;;;-5.14
74533;BMP180;63012;51.096;-115.366;2022-11-15T03:38:38;88082.40;;;-5.16
74533;BMP180;63012;51.096;-115.366;2022-11-15T03:41:16;88091.00;;;-5.14
74533;BMP180;63012;51.096;-115.366;2022-11-15T03:44:13;88093.00;;;-5.18
74533;BMP180;63012;51.096;-115.366;2022-11-15T03:47:17;88094.80;;;-5.20
74533;BMP180;63012;51.096;-115.366;2022-11-15T03:49:52;88087.40;;;-5.20
74533;BMP180;63012;51.096;-115.366;2022-11-15T03:52:22;88095.40;;;-5.20
74533;BMP180;63012;51.096;-115.366;2022-11-15T03:54:56;88100.40;;;-5.20
74533;BMP180;63012;51.096;-115.366;2022-11-15T03:57:25;88109.40;;;-5.20
74533;BMP180;63012;51.096;-115.366;2022-11-15T03:59:52;88106.20;;;-5.30
74533;BMP180;63012;51.096;-115.366;2022-11-15T04:02:19;88110.20;;;-5.30
74533;BMP180;63012;51.096;-115.366;2022-11-15T04:04:46;88112.80;;;-5.40
74533;BMP180;63012;51.096;-115.366;2022-11-15T04:07:13;88120.00;;;-5.30
74533;BMP180;63012;51.096;-115.366;2022-11-15T04:09:40;88121.60;;;-5.32
74533;BMP180;63012;51.096;-115.366;2022-11-15T04:12:26;88127.20;;;-5.30
74533;BMP180;63012;51.096;-115.366;2022-11-15T04:15:06;88126.00;;;-5.40
74533;BMP180;63012;51.096;-115.366;2022-11-15T04:17:40;88120.60;;;-5.40
74533;BMP180;63012;51.096;-115.366;2022-11-15T04:20:21;88119.60;;;-5.40
74533;BMP180;63012;51.096;-115.366;2022-11-15T04:23:22;88114.80;;;-5.40
74533;BMP180;63012;51.096;-115.366;2022-11-15T04:26:16;88120.80;;;-5.40
74533;BMP180;63012;51.096;-115.366;2022-11-15T04:28:43;88110.40;;;-5.40
74533;BMP180;63012;51.096;-115.366;2022-11-15T04:31:29;88115.40;;;-5.40
74533;BMP180;63012;51.096;-115.366;2022-11-15T04:33:56;88111.80;;;-5.40
74533;BMP180;63012;51.096;-115.366;2022-11-15T04:36:23;88120.60;;;-5.40
74533;BMP180;63012;51.096;-115.366;2022-11-15T04:39:08;88120.80;;;-5.42
74533;BMP180;63012;51.096;-115.366;2022-11-15T04:41:36;88130.60;;;-5.40
74533;BMP180;63012;51.096;-115.366;2022-11-15T04:44:02;88132.00;;;-5.42
74533;BMP180;63012;51.096;-115.366;2022-11-15T04:46:30;88126.20;;;-5.40
74533;BMP180;63012;51.096;-115.366;2022-11-15T04:48:57;88135.00;;;-5.40
74533;BMP180;63012;51.096;-115.366;2022-11-15T04:51:24;88128.40;;;-5.40
74533;BMP180;63012;51.096;-115.366;2022-11-15T04:53:51;88132.80;;;-5.40
74533;BMP180;63012;51.096;-115.366;2022-11-15T04:56:19;88130.20;;;-5.40
74533;BMP180;63012;51.096;-115.366;2022-11-15T04:58:49;88118.40;;;-5.40
74533;BMP180;63012;51.096;-115.366;2022-11-15T05:01:16;88124.60;;;-5.44
74533;BMP180;63012;51.096;-115.366;2022-11-15T05:03:44;88122.20;;;-5.50
74533;BMP180;63012;51.096;-115.366;2022-11-15T05:06:31;88122.20;;;-5.50
74533;BMP180;63012;51.096;-115.366;2022-11-15T05:08:58;88125.00;;;-5.46
74533;BMP180;63012;51.096;-115.366;2022-11-15T05:11:25;88131.20;;;-5.50
74533;BMP180;63012;51.096;-115.366;2022-11-15T05:13:54;88126.80;;;-5.50
74533;BMP180;63012;51.096;-115.366;2022-11-15T05:16:21;88137.40;;;-5.54
74533;BMP180;63012;51.096;-115.366;2022-11-15T05:18:52;88134.60;;;-5.60
74533;BMP180;63012;51.096;-115.366;2022-11-15T05:21:20;88133.20;;;-5.60
74533;BMP180;63012;51.096;-115.366;2022-11-15T05:23:48;88127.60;;;-5.70
74533;BMP180;63012;51.096;-115.366;2022-11-15T05:26:17;88128.60;;;-5.70
74533;BMP180;63012;51.096;-115.366;2022-11-15T05:28:44;88124.80;;;-5.70
74533;BMP180;63012;51.096;-115.366;2022-11-15T05:31:16;88121.20;;;-5.70
74533;BMP180;63012;51.096;-115.366;2022-11-15T05:33:44;88124.00;;;-5.72
74533;BMP180;63012;51.096;-115.366;2022-11-15T05:36:21;88125.00;;;-5.72
74533;BMP180;63012;51.096;-115.366;2022-11-15T05:38:52;88128.20;;;-5.70
74533;BMP180;63012;51.096;-115.366;2022-11-15T05:41:26;88140.00;;;-5.74
74533;BMP180;63012;51.096;-115.366;2022-11-15T05:43:54;88128.40;;;-5.80
74533;BMP180;63012;51.096;-115.366;2022-11-15T05:46:21;88130.40;;;-5.80
74533;BMP180;63012;51.096;-115.366;2022-11-15T05:48:52;88130.00;;;-5.80
74533;BMP180;63012;51.096;-115.366;2022-11-15T05:51:21;88128.80;;;-5.82
74533;BMP180;63012;51.096;-115.366;2022-11-15T05:53:51;88134.80;;;-5.90
74533;BMP180;63012;51.096;-115.366;2022-11-15T05:56:19;88134.20;;;-5.90
74533;BMP180;63012;51.096;-115.366;2022-11-15T05:58:46;88132.20;;;-5.88
74533;BMP180;63012;51.096;-115.366;2022-11-15T06:01:13;88130.20;;;-5.80
74533;BMP180;63012;51.096;-115.366;2022-11-15T06:03:40;88132.40;;;-5.80
74533;BMP180;63012;51.096;-115.366;2022-11-15T06:06:08;88129.00;;;-5.80
74533;BMP180;63012;51.096;-115.366;2022-11-15T06:08:35;88130.20;;;-5.80
74533;BMP180;63012;51.096;-115.366;2022-11-15T06:11:06;88133.20;;;-5.80
74533;BMP180;63012;51.096;-115.366;2022-11-15T06:13:34;88126.20;;;-5.74
74533;BMP180;63012;51.096;-115.366;2022-11-15T06:16:01;88129.20;;;-5.70
74533;BMP180;63012;51.096;-115.366;2022-11-15T06:18:32;88126.00;;;-5.70
74533;BMP180;63012;51.096;-115.366;2022-11-15T06:21:00;88115.60;;;-5.70
74533;BMP180;63012;51.096;-115.366;2022-11-15T06:23:31;88123.40;;;-5.70
74533;BMP180;63012;51.096;-115.366;2022-11-15T06:26:00;88132.40;;;-5.70
74533;BMP180;63012;51.096;-115.366;2022-11-15T06:28:32;88136.60;;;-5.70
74533;BMP180;63012;51.096;-115.366;2022-11-15T06:31:05;88133.40;;;-5.70
74533;BMP180;63012;51.096;-115.366;2022-11-15T06:33:33;88123.60;;;-5.68
74533;BMP180;63012;51.096;-115.366;2022-11-15T06:36:09;88119.00;;;-5.60
74533;BMP180;63012;51.096;-115.366;2022-11-15T06:38:37;88112.80;;;-5.60
74533;BMP180;63012;51.096;-115.366;2022-11-15T06:41:09;88120.80;;;-5.60
74533;BMP180;63012;51.096;-115.366;2022-11-15T06:43:37;88113.60;;;-5.60
74533;BMP180;63012;51.096;-115.366;2022-11-15T06:46:05;88120.60;;;-5.62
74533;BMP180;63012;51.096;-115.366;2022-11-15T06:48:34;88119.80;;;-5.64
74533;BMP180;63012;51.096;-115.366;2022-11-15T06:51:03;88119.80;;;-5.68
74533;BMP180;63012;51.096;-115.366;2022-11-15T06:53:31;88120.00;;;-5.70
74533;BMP180;63012;51.096;-115.366;2022-11-15T06:56:05;88117.00;;;-5.70
74533;BMP180;63012;51.096;-115.366;2022-11-15T06:58:32;88121.40;;;-5.70
74533;BMP180;63012;51.096;-115.366;2022-11-15T07:01:02;88116.40;;;-5.70
74533;BMP180;63012;51.096;-115.366;2022-11-15T07:03:30;88109.60;;;-5.70
74533;BMP180;63012;51.096;-115.366;2022-11-15T07:05:57;88115.20;;;-5.70
74533;BMP180;63012;51.096;-115.366;2022-11-15T07:08:27;88110.60;;;-5.78
74533;BMP180;63012;51.096;-115.366;2022-11-15T07:10:58;88108.40;;;-5.70
74533;BMP180;63012;51.096;-115.366;2022-11-15T07:13:27;88111.60;;;-5.70
74533;BMP180;63012;51.096;-115.366;2022-11-15T07:15:54;88114.40;;;-5.70
74533;BMP180;63012;51.096;-115.366;2022-11-15T07:18:21;88108.40;;;-5.70
74533;BMP180;63012;51.096;-115.366;2022-11-15T07:20:49;88121.00;;;-5.70
74533;BMP180;63012;51.096;-115.366;2022-11-15T07:23:15;88115.20;;;-5.70
74533;BMP180;63012;51.096;-115.366;2022-11-15T07:25:42;88108.20;;;-5.60
74533;BMP180;63012;51.096;-115.366;2022-11-15T07:28:10;88111.60;;;-5.60
74533;BMP180;63012;51.096;-115.366;2022-11-15T07:30:36;88112.20;;;-5.50
74533;BMP180;63012;51.096;-115.366;2022-11-15T07:33:03;88103.40;;;-5.50
74533;BMP180;63012;51.096;-115.366;2022-11-15T07:35:31;88101.80;;;-5.50
74533;BMP180;63012;51.096;-115.366;2022-11-15T07:38:01;88101.20;;;-5.50
74533;BMP180;63012;51.096;-115.366;2022-11-15T07:40:31;88088.40;;;-5.44
74533;BMP180;63012;51.096;-115.366;2022-11-15T07:43:04;88079.40;;;-5.46
74533;BMP180;63012;51.096;-115.366;2022-11-15T07:45:33;88083.20;;;-5.50
74533;BMP180;63012;51.096;-115.366;2022-11-15T07:48:01;88074.00;;;-5.50
74533;BMP180;63012;51.096;-115.366;2022-11-15T07:50:28;88082.20;;;-5.50
74533;BMP180;63012;51.096;-115.366;2022-11-15T07:52:58;88082.20;;;-5.50
74533;BMP180;63012;51.096;-115.366;2022-11-15T07:55:28;88082.80;;;-5.50
74533;BMP180;63012;51.096;-115.366;2022-11-15T07:58:08;88088.60;;;-5.50
74533;BMP180;63012;51.096;-115.366;2022-11-15T08:00:37;88070.60;;;-5.50
74533;BMP180;63012;51.096;-115.366;2022-11-15T08:03:11;88081.80;;;-5.50
74533;BMP180;63012;51.096;-115.366;2022-11-15T08:05:40;88082.40;;;-5.50
74533;BMP180;63012;51.096;-115.366;2022-11-15T08:08:10;88089.00;;;-5.50
74533;BMP180;63012;51.096;-115.366;2022-11-15T08:10:37;88095.80;;;-5.44
74533;BMP180;63012;51.096;-115.366;2022-11-15T08:13:10;88091.00;;;-5.40
74533;BMP180;63012;51.096;-115.366;2022-11-15T08:15:38;88083.80;;;-5.40
74533;BMP180;63012;51.096;-115.366;2022-11-15T08:18:10;88073.80;;;-5.40
74533;BMP180;63012;51.096;-115.366;2022-11-15T08:20:38;88079.20;;;-5.40
74533;BMP180;63012;51.096;-115.366;2022-11-15T08:23:07;88082.60;;;-5.40
74533;BMP180;63012;51.096;-115.366;2022-11-15T08:25:35;88075.20;;;-5.40
74533;BMP180;63012;51.096;-115.366;2022-11-15T08:28:06;88078.40;;;-5.30
74533;BMP180;63012;51.096;-115.366;2022-11-15T08:30:39;88074.00;;;-5.30
74533;BMP180;63012;51.096;-115.366;2022-11-15T08:33:12;88080.00;;;-5.30
74533;BMP180;63012;51.096;-115.366;2022-11-15T08:35:41;88086.00;;;-5.30
74533;BMP180;63012;51.096;-115.366;2022-11-15T08:38:09;88076.80;;;-5.36
74533;BMP180;63012;51.096;-115.366;2022-11-15T08:40:37;88090.20;;;-5.40
74533;BMP180;63012;51.096;-115.366;2022-11-15T08:43:04;88087.40;;;-5.38
74533;BMP180;63012;51.096;-115.366;2022-11-15T08:45:33;88092.60;;;-5.40
74533;BMP180;63012;51.096;-115.366;2022-11-15T08:48:02;88095.80;;;-5.40
74533;BMP180;63012;51.096;-115.366;2022-11-15T08:50:29;88092.80;;;-5.40
74533;BMP180;63012;51.096;-115.366;2022-11-15T08:52:57;88092.00;;;-5.40
74533;BMP180;63012;51.096;-115.366;2022-11-15T08:55:24;88093.40;;;-5.40
74533;BMP180;63012;51.096;-115.366;2022-11-15T08:57:51;88089.20;;;-5.40
74533;BMP180;63012;51.096;-115.366;2022-11-15T09:00:18;88087.80;;;-5.40
74533;BMP180;63012;51.096;-115.366;2022-11-15T09:02:46;88091.40;;;-5.40
74533;BMP180;63012;51.096;-115.366;2022-11-15T09:05:13;88085.60;;;-5.44
74533;BMP180;63012;51.096;-115.366;2022-11-15T09:07:41;88100.40;;;-5.50
74533;BMP180;63012;51.096;-115.366;2022-11-15T09:10:09;88104.60;;;-5.50
74533;BMP180;63012;51.096;-115.366;2022-11-15T09:12:36;88094.00;;;-5.50
74533;BMP180;63012;51.096;-115.366;2022-11-15T09:15:05;88095.20;;;-5.50
74533;BMP180;63012;51.096;-115.366;2022-11-15T09:17:32;88093.40;;;-5.50
74533;BMP180;63012;51.096;-115.366;2022-11-15T09:19:59;88089.80;;;-5.50
74533;BMP180;63012;51.096;-115.366;2022-11-15T09:22:26;88084.40;;;-5.50
74533;BMP180;63012;51.096;-115.366;2022-11-15T09:24:53;88074.80;;;-5.40
74533;BMP180;63012;51.096;-115.366;2022-11-15T09:27:20;88085.20;;;-5.40
74533;BMP180;63012;51.096;-115.366;2022-11-15T09:29:46;88076.80;;;-5.40
74533;BMP180;63012;51.096;-115.366;2022-11-15T09:32:13;88088.00;;;-5.40
74533;BMP180;63012;51.096;-115.366;2022-11-15T09:34:40;88083.40;;;-5.40
74533;BMP180;63012;51.096;-115.366;2022-11-15T09:37:07;88073.80;;;-5.40
74533;BMP180;63012;51.096;-115.366;2022-11-15T09:39:34;88076.80;;;-5.40
74533;BMP180;63012;51.096;-115.366;2022-11-15T09:42:25;88072.00;;;-5.40
74533;BMP180;63012;51.096;-115.366;2022-11-15T09:50:49;88084.00;;;-5.40
74533;BMP180;63012;51.096;-115.366;2022-11-15T09:56:44;88083.00;;;-5.50
74533;BMP180;63012;51.096;-115.366;2022-11-15T10:02:43;88080.80;;;-5.50
74533;BMP180;63012;51.096;-115.366;2022-11-15T10:05:20;88087.20;;;-5.50
74533;BMP180;63012;51.096;-115.366;2022-11-15T10:08:25;88089.20;;;-5.48
74533;BMP180;63012;51.096;-115.366;2022-11-15T10:11:01;88093.00;;;-5.40
74533;BMP180;63012;51.096;-115.366;2022-11-15T10:13:40;88099.60;;;-5.40
74533;BMP180;63012;51.096;-115.366;2022-11-15T10:16:31;88088.00;;;-5.40
74533;BMP180;63012;51.096;-115.366;2022-11-15T10:24:26;88095.60;;;-5.50
74533;BMP180;63012;51.096;-115.366;2022-11-15T10:26:55;88086.00;;;-5.50
74533;BMP180;63012;51.096;-115.366;2022-11-15T10:29:25;88096.00;;;-5.50
74533;BMP180;63012;51.096;-115.366;2022-11-15T10:31:53;88096.80;;;-5.50
74533;BMP180;63012;51.096;-115.366;2022-11-15T10:34:23;88096.80;;;-5.50
74533;BMP180;63012;51.096;-115.366;2022-11-15T10:36:59;88099.00;;;-5.50
74533;BMP180;63012;51.096;-115.366;2022-11-15T10:39:28;88097.20;;;-5.52
74533;BMP180;63012;51.096;-115.366;2022-11-15T10:41:55;88101.00;;;-5.50
74533;BMP180;63012;51.096;-115.366;2022-11-15T10:44:42;88108.60;;;-5.50
74533;BMP180;63012;51.096;-115.366;2022-11-15T10:47:31;88101.00;;;-5.50
74533;BMP180;63012;51.096;-115.366;2022-11-15T10:50:01;88104.80;;;-5.50
74533;BMP180;63012;51.096;-115.366;2022-11-15T10:52:31;88092.20;;;-5.50
74533;BMP180;63012;51.096;-115.366;2022-11-15T10:55:27;88102.00;;;-5.50
74533;BMP180;63012;51.096;-115.366;2022-11-15T11:00:53;88093.60;;;-5.50
74533;BMP180;63012;51.096;-115.366;2022-11-15T11:03:35;88097.60;;;-5.50
74533;BMP180;63012;51.096;-115.366;2022-11-15T11:06:16;88097.60;;;-5.50
74533;BMP180;63012;51.096;-115.366;2022-11-15T11:09:03;88102.80;;;-5.52
74533;BMP180;63012;51.096;-115.366;2022-11-15T11:11:50;88103.00;;;-5.50
74533;BMP180;63012;51.096;-115.366;2022-11-15T11:14:25;88094.40;;;-5.60
74533;BMP180;63012;51.096;-115.366;2022-11-15T11:25:59;88107.60;;;-5.70
74533;BMP180;63012;51.096;-115.366;2022-11-15T11:28:42;88119.40;;;-5.70
74533;BMP180;63012;51.096;-115.366;2022-11-15T11:40:40;88129.80;;;-5.60
74533;BMP180;63012;51.096;-115.366;2022-11-15T11:43:48;88122.20;;;-5.58
74533;BMP180;63012;51.096;-115.366;2022-11-15T11:46:32;88128.00;;;-5.54
74533;BMP180;63012;51.096;-115.366;2022-11-15T11:49:15;88126.20;;;-5.52
74533;BMP180;63012;51.096;-115.366;2022-11-15T11:51:51;88129.60;;;-5.60
74533;BMP180;63012;51.096;-115.366;2022-11-15T11:54:57;88125.40;;;-5.60
74533;BMP180;63012;51.096;-115.366;2022-11-15T12:00:49;88127.40;;;-5.70
74533;BMP180;63012;51.096;-115.366;2022-11-15T12:03:52;88129.20;;;-5.70
74533;BMP180;63012;51.096;-115.366;2022-11-15T12:12:31;88135.40;;;-5.80
74533;BMP180;63012;51.096;-115.366;2022-11-15T12:15:30;88148.40;;;-5.80
74533;BMP180;63012;51.096;-115.366;2022-11-15T12:18:00;88141.80;;;-5.80
74533;BMP180;63012;51.096;-115.366;2022-11-15T12:20:56;88145.20;;;-5.86
74533;BMP180;63012;51.096;-115.366;2022-11-15T12:23:32;88138.00;;;-5.90
74533;BMP180;63012;51.096;-115.366;2022-11-15T12:26:11;88142.40;;;-5.90
74533;BMP180;63012;51.096;-115.366;2022-11-15T12:28:58;88140.20;;;-5.90
74533;BMP180;63012;51.096;-115.366;2022-11-15T12:31:39;88143.40;;;-5.90
74533;BMP180;63012;51.096;-115.366;2022-11-15T12:34:38;88141.20;;;-5.90
74533;BMP180;63012;51.096;-115.366;2022-11-15T12:43:10;88142.60;;;-5.96
74533;BMP180;63012;51.096;-115.366;2022-11-15T12:45:51;88138.60;;;-6.00
74533;BMP180;63012;51.096;-115.366;2022-11-15T12:50:57;88154.60;;;-6.00
74533;BMP180;63012;51.096;-115.366;2022-11-15T12:58:48;88139.40;;;-6.00
74533;BMP180;63012;51.096;-115.366;2022-11-15T13:07:02;88152.40;;;-6.00
74533;BMP180;63012;51.096;-115.366;2022-11-15T13:17:49;88145.40;;;-6.00
74533;BMP180;63012;51.096;-115.366;2022-11-15T13:30:52;88165.00;;;-6.10
74533;BMP180;63012;51.096;-115.366;2022-11-15T13:33:37;88160.80;;;-6.10
74533;BMP180;63012;51.096;-115.366;2022-11-15T13:36:23;88165.40;;;-6.10
74533;BMP180;63012;51.096;-115.366;2022-11-15T13:39:31;88168.20;;;-6.20
74533;BMP180;63012;51.096;-115.366;2022-11-15T13:41:59;88179.40;;;-6.20
74533;BMP180;63012;51.096;-115.366;2022-11-15T13:44:29;88183.80;;;-6.20
74533;BMP180;63012;51.096;-115.366;2022-11-15T13:47:10;88180.40;;;-6.20
74533;BMP180;63012;51.096;-115.366;2022-11-15T13:49:40;88189.60;;;-6.28
74533;BMP180;63012;51.096;-115.366;2022-11-15T13:52:12;88198.80;;;-6.30
74533;BMP180;63012;51.096;-115.366;2022-11-15T13:54:59;88190.80;;;-6.30
74533;BMP180;63012;51.096;-115.366;2022-11-15T14:00:37;88181.20;;;-6.40
74533;BMP180;63012;51.096;-115.366;2022-11-15T14:03:38;88191.80;;;-6.42
74533;BMP180;63012;51.096;-115.366;2022-11-15T14:06:15;88184.40;;;-6.50
74533;BMP180;63012;51.096;-115.366;2022-11-15T14:11:54;88200.80;;;-6.50
74533;BMP180;63012;51.096;-115.366;2022-11-15T14:14:27;88207.00;;;-6.50
74533;BMP180;63012;51.096;-115.366;2022-11-15T14:16:58;88204.40;;;-6.50
74533;BMP180;63012;51.096;-115.366;2022-11-15T14:22:25;88232.00;;;-6.50
74533;BMP180;63012;51.096;-115.366;2022-11-15T14:25:19;88235.60;;;-6.50
74533;BMP180;63012;51.096;-115.366;2022-11-15T14:28:30;88230.80;;;-6.50
74533;BMP180;63012;51.096;-115.366;2022-11-15T14:31:00;88233.80;;;-6.48
74533;BMP180;63012;51.096;-115.366;2022-11-15T14:33:36;88226.00;;;-6.44
74533;BMP180;63012;51.096;-115.366;2022-11-15T14:38:38;88224.80;;;-6.50
74533;BMP180;63012;51.096;-115.366;2022-11-15T14:41:17;88234.60;;;-6.50
74533;BMP180;63012;51.096;-115.366;2022-11-15T14:43:44;88238.00;;;-6.50
74533;BMP180;63012;51.096;-115.366;2022-11-15T14:46:11;88226.40;;;-6.58
74533;BMP180;63012;51.096;-115.366;2022-11-15T14:48:38;88235.20;;;-6.60
74533;BMP180;63012;51.096;-115.366;2022-11-15T14:51:17;88251.40;;;-6.66
74533;BMP180;63012;51.096;-115.366;2022-11-15T14:53:45;88247.60;;;-6.70
74533;BMP180;63012;51.096;-115.366;2022-11-15T14:56:14;88242.20;;;-6.70
74533;BMP180;63012;51.096;-115.366;2022-11-15T14:58:42;88249.80;;;-6.74
74533;BMP180;63012;51.096;-115.366;2022-11-15T15:01:23;88266.80;;;-6.80
74533;BMP180;63012;51.096;-115.366;2022-11-15T15:03:52;88272.20;;;-6.80
74533;BMP180;63012;51.096;-115.366;2022-11-15T15:06:22;88264.20;;;-6.76
74533;BMP180;63012;51.096;-115.366;2022-11-15T15:08:49;88266.80;;;-6.70
74533;BMP180;63012;51.096;-115.366;2022-11-15T15:11:28;88253.40;;;-6.70
74533;BMP180;63012;51.096;-115.366;2022-11-15T15:13:56;88230.20;;;-6.70
74533;BMP180;63012;51.096;-115.366;2022-11-15T15:16:26;88242.40;;;-6.62
74533;BMP180;63012;51.096;-115.366;2022-11-15T15:18:54;88261.40;;;-6.60
74533;BMP180;63012;51.096;-115.366;2022-11-15T15:21:27;88265.60;;;-6.60
74533;BMP180;63012;51.096;-115.366;2022-11-15T15:23:55;88263.00;;;-6.60
74533;BMP180;63012;51.096;-115.366;2022-11-15T15:26:23;88257.00;;;-6.60
74533;BMP180;63012;51.096;-115.366;2022-11-15T15:28:50;88273.80;;;-6.60
74533;BMP180;63012;51.096;-115.366;2022-11-15T15:31:18;88268.80;;;-6.60
74533;BMP180;63012;51.096;-115.366;2022-11-15T15:33:45;88281.80;;;-6.60
74533;BMP180;63012;51.096;-115.366;2022-11-15T15:36:17;88280.40;;;-6.60
74533;BMP180;63012;51.096;-115.366;2022-11-15T15:38:44;88279.40;;;-6.60
74533;BMP180;63012;51.096;-115.366;2022-11-15T15:41:15;88276.60;;;-6.60
74533;BMP180;63012;51.096;-115.366;2022-11-15T15:43:43;88273.60;;;-6.60
74533;BMP180;63012;51.096;-115.366;2022-11-15T15:46:16;88267.40;;;-6.60
74533;BMP180;63012;51.096;-115.366;2022-11-15T15:48:43;88262.60;;;-6.60
74533;BMP180;63012;51.096;-115.366;2022-11-15T15:51:11;88258.60;;;-6.60
74533;BMP180;63012;51.096;-115.366;2022-11-15T15:53:39;88258.40;;;-6.60
74533;BMP180;63012;51.096;-115.366;2022-11-15T15:56:06;88256.60;;;-6.60
74533;BMP180;63012;51.096;-115.366;2022-11-15T15:58:35;88266.40;;;-6.60
74533;BMP180;63012;51.096;-115.366;2022-11-15T16:01:02;88256.40;;;-6.60